createdAt,value
2023-02-06T00:00:47.485Z,104494.09
2023-02-06T00:03:14.118Z,104480.72
2023-02-06T00:05:40.704Z,104486.94
2023-02-06T00:08:07.270Z,104479.84
2023-02-06T00:10:33.891Z,104476.28
2023-02-06T00:13:00.480Z,104484.31
2023-02-06T00:15:27.206Z,104481.72
2023-02-06T00:17:53.755Z,104479.91
2023-02-06T00:20:20.325Z,104479.94
2023-02-06T00:22:46.851Z,104478.16
2023-02-06T00:25:13.360Z,104492.44
2023-02-06T00:27:39.849Z,104490.72
2023-02-06T00:30:06.860Z,104480.00
2023-02-06T00:32:34.772Z,104469.28
2023-02-06T00:35:01.334Z,104468.44
2023-02-06T00:37:27.870Z,104471.16
2023-02-06T00:39:54.382Z,104471.16
2023-02-06T00:42:20.917Z,104477.38
2023-02-06T00:44:47.438Z,104466.69
2023-02-06T00:47:13.955Z,104469.41
2023-02-06T00:49:40.468Z,104470.25
2023-02-06T00:52:07.022Z,104472.03
2023-02-06T00:54:33.590Z,104470.22
2023-02-06T00:57:00.164Z,104468.44
2023-02-06T00:59:26.692Z,104463.06
2023-02-06T01:01:53.243Z,104466.63
2023-02-06T01:04:19.781Z,104474.66
2023-02-06T01:06:46.271Z,104475.53
2023-02-06T01:09:12.838Z,104480.88
2023-02-06T01:11:39.403Z,104474.66
2023-02-06T01:14:05.918Z,104471.97
2023-02-06T01:16:32.448Z,104477.31
2023-02-06T01:18:58.969Z,104471.09
2023-02-06T01:21:25.803Z,104476.53
2023-02-06T01:23:54.637Z,104477.38
2023-02-06T01:26:26.770Z,104490.78
2023-02-06T01:28:54.260Z,104485.44
2023-02-06T01:31:27.246Z,104484.56
2023-02-06T01:33:55.398Z,104485.44
2023-02-06T01:36:22.581Z,104482.78
2023-02-06T01:38:51.859Z,104483.72
2023-02-06T01:41:20.859Z,104483.72
2023-02-06T01:44:08.241Z,104485.59
2023-02-06T01:46:34.860Z,104491.75
2023-02-06T01:49:02.199Z,104482.84
2023-02-06T01:51:30.303Z,104471.28
2023-02-06T01:54:02.239Z,104472.22
2023-02-06T01:56:33.701Z,104467.75
2023-02-06T01:59:03.015Z,104471.34
2023-02-06T02:01:30.122Z,104470.44
2023-02-06T02:04:08.493Z,104476.72
2023-02-06T02:06:35.281Z,104464.19
2023-02-06T02:09:03.827Z,104453.50
2023-02-06T02:11:31.760Z,104447.22
2023-02-06T02:13:58.643Z,104449.03
2023-02-06T02:16:52.892Z,104451.69
2023-02-06T02:20:02.119Z,104447.22
2023-02-06T02:22:52.700Z,104438.31
2023-02-06T02:25:34.764Z,104443.56
2023-02-06T02:28:20.338Z,104437.41
2023-02-06T02:31:05.568Z,104432.88
2023-02-06T02:34:00.050Z,104444.50
2023-02-06T02:36:34.603Z,104448.84
2023-02-06T02:39:13.135Z,104445.31
2023-02-06T02:42:11.929Z,104442.69
2023-02-06T02:44:52.737Z,104440.91
2023-02-06T02:47:23.831Z,104440.91
2023-02-06T02:49:50.473Z,104429.31
2023-02-06T02:52:18.915Z,104428.44
2023-02-06T02:54:45.479Z,104431.16
2023-02-06T02:57:17.794Z,104426.75
2023-02-06T02:59:47.615Z,104431.22
2023-02-06T03:02:28.797Z,104428.63
2023-02-06T03:05:01.132Z,104436.56
2023-02-06T03:07:37.722Z,104434.00
2023-02-06T03:10:39.058Z,104418.03
2023-02-06T03:13:18.319Z,104424.28
2023-02-06T03:16:01.342Z,104428.75
2023-02-06T03:18:34.660Z,104423.38
2023-02-06T03:21:03.923Z,104438.63
2023-02-06T03:23:33.610Z,104435.97
2023-02-06T03:26:05.878Z,104433.28
2023-02-06T03:28:35.902Z,104433.34
2023-02-06T03:31:06.938Z,104428.97
2023-02-06T03:33:40.056Z,104425.41
2023-02-06T03:36:09.947Z,104421.88
2023-02-06T03:38:36.932Z,104418.25
2023-02-06T03:41:04.860Z,104419.22
2023-02-06T03:43:32.258Z,104424.59
2023-02-06T03:46:05.114Z,104427.31
2023-02-06T03:48:39.761Z,104426.44
2023-02-06T03:51:15.832Z,104429.16
2023-02-06T03:53:44.770Z,104430.94
2023-02-06T03:56:19.524Z,104436.38
2023-02-06T03:58:46.029Z,104431.91
2023-02-06T04:01:13.566Z,104427.50
2023-02-06T04:03:40.107Z,104418.59
2023-02-06T04:06:06.904Z,104423.97
2023-02-06T04:08:33.440Z,104429.38
2023-02-06T04:10:59.957Z,104440.97
2023-02-06T04:13:26.455Z,104433.00
2023-02-06T04:15:52.978Z,104439.25
2023-02-06T04:18:19.497Z,104444.59
2023-02-06T04:20:46.006Z,104441.91
2023-02-06T04:23:12.549Z,104445.53
2023-02-06T04:25:39.222Z,104441.91
2023-02-06T04:28:06.047Z,104435.69
2023-02-06T04:30:32.692Z,104438.38
2023-02-06T04:32:59.195Z,104434.81
2023-02-06T04:35:25.771Z,104426.81
2023-02-06T04:37:52.566Z,104441.91
2023-02-06T04:40:19.217Z,104443.72
2023-02-06T04:42:46.285Z,104442.84
2023-02-06T04:45:13.210Z,104449.06
2023-02-06T04:47:40.063Z,104441.03
2023-02-06T04:50:07.012Z,104439.31
2023-02-06T04:52:33.626Z,104428.66
2023-02-06T04:55:00.138Z,104434.03
2023-02-06T04:57:26.903Z,104425.13
2023-02-06T04:59:53.381Z,104432.25
2023-02-06T05:02:19.908Z,104428.69
2023-02-06T05:04:46.458Z,104425.16
2023-02-06T05:07:13.097Z,104427.84
2023-02-06T05:09:39.597Z,104430.56
2023-02-06T05:12:06.146Z,104424.34
2023-02-06T05:14:32.670Z,104443.97
2023-02-06T05:16:59.233Z,104450.25
2023-02-06T05:19:25.752Z,104453.88
2023-02-06T05:21:52.271Z,104444.97
2023-02-06T05:24:18.994Z,104444.09
2023-02-06T05:26:46.492Z,104442.31
2023-02-06T05:29:13.115Z,104444.13
2023-02-06T05:31:40.350Z,104451.28
2023-02-06T05:34:06.982Z,104457.50
2023-02-06T05:36:33.508Z,104453.94
2023-02-06T05:39:00.016Z,104445.91
2023-02-06T05:41:26.515Z,104440.59
2023-02-06T05:43:53.031Z,104443.22
2023-02-06T05:46:19.619Z,104446.78
2023-02-06T05:48:46.195Z,104443.22
2023-02-06T05:51:12.682Z,104443.16
2023-02-06T05:53:39.306Z,104444.09
2023-02-06T05:56:06.029Z,104449.44
2023-02-06T05:58:33.384Z,104447.66
2023-02-06T06:00:59.965Z,104446.81
2023-02-06T06:03:26.555Z,104445.94
2023-02-06T06:05:54.036Z,104459.31
2023-02-06T06:08:21.144Z,104460.16
2023-02-06T06:10:50.676Z,104463.78
2023-02-06T06:13:17.507Z,104470.06
2023-02-06T06:15:44.052Z,104470.06
2023-02-06T06:18:11.091Z,104470.06
2023-02-06T06:20:37.602Z,104465.56
2023-02-06T06:23:04.143Z,104458.47
2023-02-06T06:25:30.691Z,104457.63
2023-02-06T06:27:57.270Z,104457.63
2023-02-06T06:30:23.975Z,104466.56
2023-02-06T06:32:50.508Z,104470.13
2023-02-06T06:35:17.108Z,104466.56
2023-02-06T06:37:43.621Z,104464.78
2023-02-06T06:40:10.948Z,104456.81
2023-02-06T06:42:37.496Z,104456.75
2023-02-06T06:45:04.486Z,104452.38
2023-02-06T06:47:31.021Z,104434.56
2023-02-06T06:49:57.607Z,104444.34
2023-02-06T06:52:25.561Z,104447.94
2023-02-06T06:54:53.260Z,104447.00
2023-02-06T06:57:20.739Z,104444.41
2023-02-06T06:59:47.299Z,104441.72
2023-02-06T07:02:13.827Z,104443.53
2023-02-06T07:04:40.380Z,104441.72
2023-02-06T07:07:07.286Z,104444.41
2023-02-06T07:09:33.859Z,104437.25
2023-02-06T07:12:00.400Z,104437.25
2023-02-06T07:14:26.863Z,104436.38
2023-02-06T07:16:53.602Z,104436.31
2023-02-06T07:19:21.289Z,104439.84
2023-02-06T07:21:47.936Z,104438.03
2023-02-06T07:24:14.627Z,104420.19
2023-02-06T07:26:41.561Z,104423.72
2023-02-06T07:29:08.093Z,104422.78
2023-02-06T07:31:34.659Z,104420.94
2023-02-06T07:34:02.303Z,104423.59
2023-02-06T07:36:28.897Z,104420.94
2023-02-06T07:38:55.419Z,104420.91
2023-02-06T07:41:21.963Z,104408.47
2023-02-06T07:43:48.549Z,104400.38
2023-02-06T07:46:15.220Z,104395.03
2023-02-06T07:48:42.464Z,104384.25
2023-02-06T07:51:10.016Z,104386.94
2023-02-06T07:53:36.701Z,104389.63
2023-02-06T07:58:40.425Z,104391.41
2023-02-06T08:01:07.721Z,104385.13
2023-02-06T08:03:34.677Z,104381.59
2023-02-06T08:06:01.339Z,104374.44
2023-02-06T08:08:27.845Z,104370.91
2023-02-06T08:10:54.376Z,104369.09
2023-02-06T08:13:20.868Z,104361.06
2023-02-06T08:15:47.375Z,104361.06
2023-02-06T08:18:13.888Z,104355.69
2023-02-06T08:20:40.672Z,104360.16
2023-02-06T08:23:08.073Z,104354.81
2023-02-06T08:25:35.067Z,104346.78
2023-02-06T08:28:02.049Z,104342.31
2023-02-06T08:30:28.910Z,104339.63
2023-02-06T08:32:55.734Z,104338.69
2023-02-06T08:35:22.296Z,104340.50
2023-02-06T08:37:48.806Z,104331.56
2023-02-06T08:40:15.343Z,104324.41
2023-02-06T08:42:41.950Z,104327.94
2023-02-06T08:45:09.070Z,104337.72
2023-02-06T08:47:35.642Z,104343.03
2023-02-06T08:50:03.538Z,104317.13
2023-02-06T08:52:30.416Z,104309.09
2023-02-06T08:54:56.947Z,104310.81
2023-02-06T08:57:23.592Z,104325.00
2023-02-06T08:59:50.694Z,104309.72
2023-02-06T09:02:17.239Z,104314.97
2023-02-06T09:04:43.798Z,104309.50
2023-02-06T09:07:10.338Z,104318.31
2023-02-06T09:09:36.959Z,104323.50
2023-02-06T09:12:04.029Z,104335.88
2023-02-06T09:14:31.304Z,104326.88
2023-02-06T09:16:58.349Z,104325.88
2023-02-06T09:19:25.832Z,104331.06
2023-02-06T09:21:52.464Z,104326.47
2023-02-06T09:24:19.286Z,104321.91
2023-02-06T09:26:59.042Z,104330.72
2023-02-06T09:29:28.907Z,104332.44
2023-02-06T09:31:57.419Z,104334.97
2023-02-06T09:34:25.846Z,104335.72
2023-02-06T09:36:54.825Z,104334.81
2023-02-06T09:39:21.444Z,104336.50
2023-02-06T09:41:52.211Z,104340.88
2023-02-06T09:44:21.541Z,104339.00
2023-02-06T09:46:53.855Z,104342.50
2023-02-06T09:49:35.926Z,104348.66
2023-02-06T09:52:31.199Z,104352.16
2023-02-06T09:55:35.798Z,104359.22
2023-02-06T09:58:20.370Z,104351.03
2023-02-06T10:00:53.473Z,104359.84
2023-02-06T10:03:47.521Z,104370.53
2023-02-06T10:06:32.914Z,104366.78
2023-02-06T10:09:12.149Z,104367.59
2023-02-06T10:11:45.773Z,104362.91
2023-02-06T10:14:26.093Z,104364.63
2023-02-06T10:17:01.325Z,104368.09
2023-02-06T10:19:43.875Z,104363.50
2023-02-06T10:22:16.895Z,104359.75
2023-02-06T10:25:01.599Z,104356.06
2023-02-06T10:27:28.103Z,104355.97
2023-02-06T10:29:54.717Z,104354.03
2023-02-06T10:32:42.764Z,104357.47
2023-02-06T10:35:50.138Z,104354.59
2023-02-06T10:38:33.968Z,104354.41
2023-02-06T10:41:15.269Z,104343.50
2023-02-06T10:43:50.907Z,104342.44
2023-02-06T10:46:48.374Z,104346.81
2023-02-06T10:49:25.609Z,104337.72
2023-02-06T10:51:58.825Z,104334.06
2023-02-06T10:54:31.601Z,104333.00
2023-02-06T10:56:59.684Z,104343.56
2023-02-06T10:59:31.486Z,104338.91
2023-02-06T11:02:04.129Z,104341.47
2023-02-06T11:04:41.162Z,104333.28
2023-02-06T11:07:16.427Z,104341.19
2023-02-06T11:09:43.662Z,104341.94
2023-02-06T11:12:39.513Z,104344.53
2023-02-06T11:15:36.300Z,104339.13
2023-02-06T11:18:06.147Z,104342.56
2023-02-06T11:20:36.805Z,104339.81
2023-02-06T11:23:24.965Z,104341.63
2023-02-06T11:26:14.363Z,104346.91
2023-02-06T11:28:56.236Z,104345.06
2023-02-06T11:31:44.768Z,104340.56
2023-02-06T11:34:42.957Z,104335.97
2023-02-06T11:37:48.323Z,104319.84
2023-02-06T11:40:35.195Z,104321.50
2023-02-06T11:43:22.834Z,104323.31
2023-02-06T11:45:52.672Z,104321.44
2023-02-06T11:48:54.504Z,104314.34
2023-02-06T11:51:22.643Z,104310.66
2023-02-06T11:53:59.563Z,104312.38
2023-02-06T11:56:27.047Z,104311.38
2023-02-06T11:59:19.045Z,104311.47
2023-02-06T12:01:48.038Z,104297.88
2023-02-06T12:04:24.553Z,104303.25
2023-02-06T12:07:16.186Z,104299.66
2023-02-06T12:09:43.399Z,104305.84
2023-02-06T12:12:25.536Z,104300.47
2023-02-06T12:14:59.098Z,104295.06
2023-02-06T12:17:36.467Z,104291.44
2023-02-06T12:20:26.441Z,104279.75
2023-02-06T12:23:22.800Z,104275.25
2023-02-06T12:25:52.982Z,104276.94
2023-02-06T12:28:44.407Z,104275.22
2023-02-06T12:31:47.933Z,104273.22
2023-02-06T12:34:21.946Z,104268.75
2023-02-06T12:37:21.343Z,104272.31
2023-02-06T12:39:48.900Z,104275.72
2023-02-06T12:42:29.551Z,104275.66
2023-02-06T12:45:10.663Z,104275.56
2023-02-06T12:48:02.276Z,104264.78
2023-02-06T12:50:40.528Z,104265.44
2023-02-06T12:53:32.808Z,104260.94
2023-02-06T12:56:12.714Z,104264.44
2023-02-06T12:58:42.322Z,104261.69
2023-02-06T13:01:34.317Z,104256.22
2023-02-06T13:04:26.776Z,104249.00
2023-02-06T13:07:09.670Z,104248.91
2023-02-06T13:09:46.802Z,104238.03
2023-02-06T13:12:15.134Z,104228.09
2023-02-06T13:14:51.352Z,104222.56
2023-02-06T13:17:24.511Z,104226.00
2023-02-06T13:20:07.137Z,104221.44
2023-02-06T13:22:45.856Z,104225.75
2023-02-06T13:25:30.580Z,104224.84
2023-02-06T13:28:01.269Z,104213.06
2023-02-06T13:30:30.958Z,104209.38
2023-02-06T13:33:15.024Z,104209.28
2023-02-06T13:35:54.951Z,104202.06
2023-02-06T13:38:24.362Z,104203.63
2023-02-06T13:41:12.999Z,104198.28
2023-02-06T13:43:41.883Z,104198.19
2023-02-06T13:46:15.466Z,104190.94
2023-02-06T13:48:57.139Z,104190.00
2023-02-06T13:51:26.586Z,104190.75
2023-02-06T13:54:17.832Z,104196.13
2023-02-06T13:56:44.406Z,104200.41
2023-02-06T13:59:19.030Z,104198.69
2023-02-06T14:01:45.797Z,104194.13
2023-02-06T14:04:20.045Z,104184.28
2023-02-06T14:07:08.919Z,104185.09
2023-02-06T14:09:44.410Z,104185.09
2023-02-06T14:12:45.030Z,104177.91
2023-02-06T14:15:15.727Z,104176.97
2023-02-06T14:18:05.584Z,104179.66
2023-02-06T14:20:59.339Z,104168.03
2023-02-06T14:24:03.087Z,104165.28
2023-02-06T14:26:51.193Z,104168.84
2023-02-06T14:29:44.408Z,104167.91
2023-02-06T14:32:23.767Z,104178.63
2023-02-06T14:35:05.097Z,104175.94
2023-02-06T14:37:40.618Z,104177.69
2023-02-06T14:40:29.705Z,104185.84
2023-02-06T14:43:04.524Z,104189.38
2023-02-06T14:45:41.771Z,104192.06
2023-02-06T14:48:22.398Z,104194.75
2023-02-06T14:50:54.453Z,104193.03
2023-02-06T14:53:26.121Z,104187.72
2023-02-06T14:56:04.817Z,104195.72
2023-02-06T14:58:31.418Z,104195.75
2023-02-06T15:01:20.008Z,104195.03
2023-02-06T15:03:49.039Z,104200.41
2023-02-06T15:06:37.709Z,104191.66
2023-02-06T15:09:05.707Z,104200.59
2023-02-06T15:11:33.152Z,104204.19
2023-02-06T15:14:18.732Z,104215.91
2023-02-06T15:16:51.083Z,104209.75
2023-02-06T15:19:37.179Z,104218.66
2023-02-06T15:22:14.182Z,104221.50
2023-02-06T15:24:58.964Z,104223.41
2023-02-06T15:27:32.083Z,104227.94
2023-02-06T15:30:00.241Z,104223.66
2023-02-06T15:32:37.846Z,104225.72
2023-02-06T15:35:38.066Z,104218.81
2023-02-06T15:38:16.044Z,104223.38
2023-02-06T15:40:46.352Z,104215.47
2023-02-06T15:43:20.013Z,104204.88
2023-02-06T15:45:47.456Z,104202.41
2023-02-06T15:48:25.274Z,104204.13
2023-02-06T15:51:00.833Z,104203.28
2023-02-06T15:53:31.200Z,104198.06
2023-02-06T15:55:58.557Z,104197.34
2023-02-06T15:58:26.260Z,104203.56
2023-02-06T16:00:55.679Z,104197.47
2023-02-06T16:03:27.359Z,104199.44
2023-02-06T16:05:56.563Z,104200.28
2023-02-06T16:08:28.419Z,104189.78
2023-02-06T16:11:00.976Z,104191.66
2023-02-06T16:13:30.605Z,104197.09
2023-02-06T16:16:21.553Z,104204.50
2023-02-06T16:18:52.035Z,104195.56
2023-02-06T16:21:23.373Z,104201.84
2023-02-06T16:24:02.518Z,104207.38
2023-02-06T16:26:31.564Z,104206.53
2023-02-06T16:29:03.573Z,104210.13
2023-02-06T16:31:34.164Z,104207.53
2023-02-06T16:34:03.279Z,104204.16
2023-02-06T16:36:32.310Z,104203.28
2023-02-06T16:39:04.199Z,104209.34
2023-02-06T16:41:33.770Z,104210.25
2023-02-06T16:44:01.717Z,104220.84
2023-02-06T16:46:29.217Z,104211.88
2023-02-06T16:48:56.466Z,104214.50
2023-02-06T16:51:26.146Z,104215.34
2023-02-06T16:53:52.964Z,104217.09
2023-02-06T16:56:21.201Z,104216.22
2023-02-06T16:58:48.431Z,104218.84
2023-02-06T17:01:26.548Z,104230.59
2023-02-06T17:03:53.422Z,104222.53
2023-02-06T17:06:26.988Z,104234.13
2023-02-06T17:08:57.896Z,104228.78
2023-02-06T17:11:24.942Z,104227.03
2023-02-06T17:13:51.780Z,104232.44
2023-02-06T17:16:21.720Z,104244.13
2023-02-06T17:18:49.634Z,104238.81
2023-02-06T17:21:19.080Z,104245.19
2023-02-06T17:23:46.484Z,104230.91
2023-02-06T17:26:15.825Z,104230.97
2023-02-06T17:28:42.392Z,104222.13
2023-02-06T17:31:09.599Z,104226.63
2023-02-06T17:33:36.664Z,104223.13
2023-02-06T17:36:07.502Z,104223.19
2023-02-06T17:38:34.343Z,104224.13
2023-02-06T17:41:00.924Z,104221.50
2023-02-06T17:43:28.059Z,104221.31
2023-02-06T17:45:54.583Z,104215.81
2023-02-06T17:48:21.346Z,104213.00
2023-02-06T17:50:47.891Z,104208.44
2023-02-06T17:53:14.819Z,104213.63
2023-02-06T17:55:41.741Z,104214.41
2023-02-06T17:58:08.389Z,104208.03
2023-02-06T18:00:35.170Z,104202.53
2023-02-06T18:03:02.126Z,104211.31
2023-02-06T18:05:28.724Z,104211.16
2023-02-06T18:07:55.308Z,104205.75
2023-02-06T18:10:24.222Z,104211.97
2023-02-06T18:12:50.929Z,104202.94
2023-02-06T18:15:17.612Z,104211.75
2023-02-06T18:17:44.237Z,104200.06
2023-02-06T18:20:12.178Z,104202.63
2023-02-06T18:22:41.254Z,104190.00
2023-02-06T18:25:13.749Z,104198.06
2023-02-06T18:27:41.499Z,104191.75
2023-02-06T18:30:08.956Z,104198.84
2023-02-06T18:32:38.270Z,104191.75
2023-02-06T18:35:06.286Z,104196.25
2023-02-06T18:37:32.894Z,104190.94
2023-02-06T18:39:59.428Z,104182.97
2023-02-06T18:42:44.839Z,104177.69
2023-02-06T18:45:11.544Z,104176.88
2023-02-06T18:47:39.065Z,104183.25
2023-02-06T18:50:06.004Z,104178.03
2023-02-06T18:52:32.892Z,104177.22
2023-02-06T18:54:59.466Z,104177.31
2023-02-06T18:57:26.024Z,104163.16
2023-02-06T18:59:52.560Z,104165.88
2023-02-06T19:02:19.134Z,104166.06
2023-02-06T19:04:45.733Z,104167.06
2023-02-06T19:07:12.375Z,104169.88
2023-02-06T19:09:39.057Z,104170.81
2023-02-06T19:12:05.870Z,104170.94
2023-02-06T19:14:32.578Z,104160.34
2023-02-06T19:16:59.184Z,104163.09
2023-02-06T19:19:25.852Z,104156.13
2023-02-06T19:21:52.604Z,104158.94
2023-02-06T19:24:20.302Z,104157.28
2023-02-06T19:26:46.829Z,104150.16
2023-02-06T19:29:33.643Z,104152.06
2023-02-06T19:32:06.446Z,104145.09
2023-02-06T19:34:36.188Z,104158.59
2023-02-06T19:37:08.781Z,104151.53
2023-02-06T19:39:37.000Z,104146.25
2023-02-06T19:42:06.613Z,104151.66
2023-02-06T19:44:34.190Z,104147.34
2023-02-06T19:47:01.166Z,104148.25
2023-02-06T19:49:28.551Z,104144.81
2023-02-06T19:51:55.134Z,104144.91
2023-02-06T19:54:21.740Z,104154.84
2023-02-06T19:56:49.027Z,104145.97
2023-02-06T19:59:22.122Z,104149.75
2023-02-06T20:01:54.291Z,104147.13
2023-02-06T20:04:24.650Z,104151.59
2023-02-06T20:06:51.785Z,104154.38
2023-02-06T20:09:20.530Z,104150.91
2023-02-06T20:11:48.929Z,104150.94
2023-02-06T20:14:16.374Z,104145.66
2023-02-06T20:16:43.689Z,104146.66
2023-02-06T20:19:18.312Z,104155.66
2023-02-06T20:21:48.493Z,104149.47
2023-02-06T20:24:20.637Z,104149.53
2023-02-06T20:26:48.582Z,104141.59
2023-02-06T20:29:32.820Z,104145.25
2023-02-06T20:32:00.861Z,104139.97
2023-02-06T20:34:27.915Z,104137.34
2023-02-06T20:36:55.568Z,104143.66
2023-02-06T20:39:22.184Z,104136.59
2023-02-06T20:41:50.276Z,104133.13
2023-02-06T20:44:18.190Z,104135.84
2023-02-06T20:46:45.147Z,104132.38
2023-02-06T20:49:17.323Z,104139.59
2023-02-06T20:51:43.894Z,104135.16
2023-02-06T20:54:11.591Z,104131.66
2023-02-06T20:56:39.466Z,104128.09
2023-02-06T20:59:06.503Z,104130.91
2023-02-06T21:01:33.290Z,104131.84
2023-02-06T21:04:03.203Z,104137.19
2023-02-06T21:06:31.246Z,104139.97
2023-02-06T21:09:00.161Z,104143.56
2023-02-06T21:11:29.554Z,104142.75
2023-02-06T21:13:58.936Z,104146.38
2023-02-06T21:16:26.967Z,104142.81
2023-02-06T21:18:54.522Z,104139.34
2023-02-06T21:21:21.546Z,104134.06
2023-02-06T21:23:48.422Z,104141.28
2023-02-06T21:26:17.361Z,104144.81
2023-02-06T21:28:45.186Z,104141.34
2023-02-06T21:31:21.316Z,104146.72
2023-02-06T21:33:49.240Z,104132.47
2023-02-06T21:36:16.070Z,104140.56
2023-02-06T21:38:43.150Z,104133.47
2023-02-06T21:41:13.129Z,104137.06
2023-02-06T21:43:40.052Z,104137.06
2023-02-06T21:46:06.921Z,104133.59
2023-02-06T21:48:34.565Z,104136.31
2023-02-06T21:51:11.530Z,104144.44
2023-02-06T21:53:38.541Z,104136.41
2023-02-06T21:56:13.629Z,104139.16
2023-02-06T21:58:40.202Z,104128.38
2023-02-06T22:01:08.828Z,104131.03
2023-02-06T22:03:36.073Z,104135.53
2023-02-06T22:06:08.724Z,104132.84
2023-02-06T22:08:36.749Z,104138.13
2023-02-06T22:11:11.252Z,104140.88
2023-02-06T22:13:37.739Z,104143.50
2023-02-06T22:16:04.592Z,104134.66
2023-02-06T22:18:31.122Z,104134.66
2023-02-06T22:21:24.791Z,104130.38
2023-02-06T22:23:52.230Z,104138.31
2023-02-06T22:26:21.042Z,104141.00
2023-02-06T22:28:47.992Z,104137.53
2023-02-06T22:31:20.431Z,104126.88
2023-02-06T22:33:46.973Z,104118.91
2023-02-06T22:36:21.534Z,104122.53
2023-02-06T22:38:52.723Z,104122.56
2023-02-06T22:41:19.322Z,104124.38
2023-02-06T22:43:48.562Z,104129.81
2023-02-06T22:46:36.593Z,104137.09
2023-02-06T22:49:05.369Z,104134.34
2023-02-06T22:51:32.467Z,104131.78
2023-02-06T22:53:59.289Z,104134.47
2023-02-06T22:56:31.044Z,104138.09
2023-02-06T22:59:02.312Z,104147.94
2023-02-06T23:01:37.407Z,104140.88
2023-02-06T23:04:06.534Z,104134.63
2023-02-06T23:06:34.725Z,104142.69
2023-02-06T23:09:02.642Z,104147.19
2023-02-06T23:11:29.196Z,104150.78
2023-02-06T23:13:58.474Z,104155.31
2023-02-06T23:16:26.262Z,104149.97
2023-02-06T23:18:53.113Z,104146.50
2023-02-06T23:21:21.480Z,104139.34
2023-02-06T23:23:48.682Z,104143.81
2023-02-06T23:26:17.247Z,104141.16
2023-02-06T23:28:43.739Z,104143.81
2023-02-06T23:31:10.614Z,104145.56
2023-02-06T23:33:37.755Z,104145.56
2023-02-06T23:36:11.496Z,104149.16
2023-02-06T23:38:38.406Z,104136.72
2023-02-06T23:41:17.598Z,104135.72
2023-02-06T23:43:44.674Z,104138.41
2023-02-06T23:46:12.592Z,104133.13
2023-02-06T23:48:39.631Z,104138.47
2023-02-06T23:51:06.637Z,104130.47
2023-02-06T23:53:33.196Z,104140.31
2023-02-06T23:55:59.879Z,104144.81
2023-02-06T23:58:26.629Z,104147.56
